Aviation Digital Data Service (ADDS)

Output produced by METARs form (1656 UTC 14 February 2016)
found at http://www.aviationweather.gov/adds/metars/
 
KCXY 141556Z VRB03KT 10SM CLR M09/M19 A3053 RMK AO2 SLP348 T10941194
KCXY 141456Z VRB04KT 10SM CLR M10/M20 A3052 RMK AO2 SLP345 T11001200 50009
KCXY 141356Z 31010KT 10SM SCT041 M11/M21 A3053 RMK AO2 SLP348 T11111211
KCXY 141256Z 29009KT 10SM CLR M12/M21 A3051 RMK AO2 SLP341 T11221211
KCXY 141156Z 29007KT 10SM CLR M13/M21 A3050 RMK AO2 SLP336 T11281211 11117 21133 53029
KCXY 141056Z AUTO 28006KT 10SM CLR M13/M21 A3047 RMK AO2 SLP327 T11281211
KCXY 140956Z AUTO 28009KT 10SM CLR M13/M21 A3043 RMK AO2 SLP315 T11281211
KCXY 140856Z AUTO 31010G18KT 10SM CLR M12/M21 A3041 RMK AO2 SLP307 T11221211 53010
KCXY 140756Z AUTO 31014G20KT 10SM CLR M12/M22 A3040 RMK AO2 SLP302 T11171217
KCXY 140656Z AUTO 31012KT 10SM CLR M12/M22 A3039 RMK AO2 SLP300 T11171217
KCXY 140556Z AUTO 31014G22KT 10SM BKN044 M12/M22 A3038 RMK AO2 SLP297 T11171217 11100 21117 52002
KCXY 140456Z AUTO 30013G23KT 10SM FEW046 M12/M22 A3038 RMK AO2 SLP297 T11171222 410561117
KCXY 140356Z AUTO 29014G20KT 10SM OVC046 M11/M22 A3037 RMK AO2 SLP293 T11111222
KCXY 140256Z AUTO 29017G23KT 10SM FEW060 M11/M23 A3038 RMK AO2 SLP294 T11111233 51009
KCXY 140156Z AUTO 30018G23KT 10SM FEW060 M11/M23 A3037 RMK AO2 PK WND 29026/0143 SLP291 T11061233
KCXY 140056Z 30016G26KT 10SM BKN055 BKN065 M11/M22 A3036 RMK AO2 PK WND 27026/0047 SLP288 T11061222
KCXY 132356Z 29015G22KT 10SM OVC049 M10/M21 A3035 RMK AO2 SLP284 60000 T11001206 11083 21100 53025
KCXY 132256Z 31012G22KT 10SM BKN055 OVC070 M09/M19 A3031 RMK AO2 PK WND 30030/2204 SLP272 T10941194
KCXY 132156Z 32013G21KT 10SM BKN060 OVC075 M09/M22 A3029 RMK AO2 SLP265 T10941217
KCXY 132056Z 30016G28KT 10SM BKN065 OVC080 M09/M22 A3027 RMK AO2 PK WND 32028/1957 SLP258 60000 T10941217 53015
KCXY 131956Z 31019G27KT 10SM FEW047 BKN060 M09/M22 A3025 RMK AO2 PK WND 31032/1924 UPB27E36 SLP251 P0000 T10941217
KCXY 131856Z 31011G26KT 10SM OVC055 M09/M21 A3024 RMK AO2 PK WND 27029/1827 SLP246 T10891211
KCXY 131756Z 29018G28KT 10SM OVC060 M08/M21 A3023 RMK AO2 PK WND 30032/1735 SLP243 T10831211 11078 21089 51014
KCXY 131656Z 32015G31KT 10SM BKN050 BKN075 M08/M21 A3022 RMK AO2 PK WND 31031/1649 SLP241 T10781206
KCXY 131556Z 30017G27KT 10SM OVC060 M08/M21 A3021 RMK AO2 PK WND 30031/1546 SLP237 T10781206
KCXY 131456Z 30016G24KT 10SM FEW055 M08/M20 A3019 RMK AO2 PK WND 31033/1410 SLP230 T10831200 51029
KCXY 131356Z 30019G26KT 10SM BKN055 M08/M20 A3016 RMK AO2 PK WND 29028/1318 SLP221 T10831200
KCXY 131256Z 28013G29KT 9SM FEW050 M08/M19 A3013 RMK AO2 PK WND 30029/1250 SLP209 T10831194
KCXY 131156Z 30015G22KT 10SM CLR M08/M19 A3010 RMK AO2 SLP200 60000 T10831194 11056 21083 51042
KCXY 131056Z AUTO 30018G26KT 9SM CLR M07/M19 A3007 RMK AO2 PK WND 32026/1056 SLP187 T10721189
KCXY 130956Z AUTO 31012G26KT 10SM FEW045 BKN080 M07/M16 A3002 RMK AO2 PK WND 30026/0948 SLP172 T10671161
KCXY 130856Z AUTO 29012G21KT 10SM CLR M06/M16 A2998 RMK AO2 SLP157 60000 T10611161 53012
KCXY 130756Z AUTO 28009KT 10SM SCT090 M07/M13 A2995 RMK AO2 SNB29E41 SLP149 P0000 T10671128
KCXY 130656Z AUTO 25007KT 10SM SCT043 M08/M12 A2993 RMK AO2 SLP142 T10781122
KCXY 130556Z AUTO 27005KT 10SM BKN040 BKN049 M08/M11 A2994 RMK AO2 SLP146 60000 T10781111 11061 21078 56012